Weather at Blythe Airport

Public forecast

Using degrees Fahrenheit for public forecast. Weather courtesy of forecast.io.

Current aviation weather report (METAR) for Blythe Airport

Retrieved 2021/02/28 15:52 UTC (1 hour ago):

KBLH 281552Z AUTO 34014KT 10SM CLR 12/M14 A3026 RMK AO2 PK WND 01027/1519 SLP245 T01221139

Aviation forecast (TAF) for Blythe Airport

Retrieved 2021/02/28 12:22 UTC (5 hours ago):

TAF KBLH 281120Z 2812/0112 35018KT P6SM SKC FM281600 36022G31KT P6SM SKC FM010100 35012KT P6SM SKC FM010700 35005KT P6SM SKC